Saint Joseph, Iowa
Current Conditions -  °F | °C
As of 12:35 PM on Friday 31 Oct 2014 (Local Time) from KAXA Reporting Station
Clear Clear  
Wind Chill: -4°   Ceiling: Unl
Heat Index:   Visibility: 10mi
Dew Point: -7°   Wind: 14mph
Humidity: 56%   Direction: 20°NNE
Pressure: 30.55"   Gusts: 20mph
Location:  42.8572°N, 94.2676°W
Report Text: KAXA 311735Z AUTO 02012G17KT 10SM CLR 01/M07 A3055 RMK AO2
Loading
Personal Weather Stations






























Interactive Weather Map
Tropical Storm Tracking
New forecast layout! Learn more

10-Day Weather Forecast

Advertisements
Track Severe Weather on mobile